sensor_id;sensor_type;location;lat;lon;timestamp;pressure;altitude;pressure_sealevel;temperature;humidity
1371;BME280;14306;49.942;11.570;2022-09-21T00:01:30;98288.81;;;8.15;94.24
1371;BME280;14306;49.942;11.570;2022-09-21T00:03:59;98293.19;;;8.27;94.89
1371;BME280;14306;49.942;11.570;2022-09-21T00:06:30;98296.44;;;8.44;94.33
1371;BME280;14306;49.942;11.570;2022-09-21T00:09:01;98291.56;;;8.26;94.23
1371;BME280;14306;49.942;11.570;2022-09-21T00:11:32;98288.34;;;8.44;92.08
1371;BME280;14306;49.942;11.570;2022-09-21T00:14:02;98288.06;;;8.30;92.46
1371;BME280;14306;49.942;11.570;2022-09-21T00:16:33;98285.03;;;8.11;93.47
1371;BME280;14306;49.942;11.570;2022-09-21T00:19:01;98278.28;;;8.09;94.08
1371;BME280;14306;49.942;11.570;2022-09-21T00:21:31;98283.25;;;8.42;91.97
1371;BME280;14306;49.942;11.570;2022-09-21T00:24:01;98285.66;;;8.59;89.97
1371;BME280;14306;49.942;11.570;2022-09-21T00:26:30;98285.81;;;7.97;91.78
1371;BME280;14306;49.942;11.570;2022-09-21T00:29:00;98291.81;;;8.19;92.48
1371;BME280;14306;49.942;11.570;2022-09-21T00:31:29;98294.19;;;8.05;91.44
1371;BME280;14306;49.942;11.570;2022-09-21T00:33:58;98282.03;;;8.03;91.66
1371;BME280;14306;49.942;11.570;2022-09-21T00:36:28;98289.03;;;7.94;92.45
1371;BME280;14306;49.942;11.570;2022-09-21T00:38:57;98292.84;;;8.18;92.10
1371;BME280;14306;49.942;11.570;2022-09-21T00:41:29;98302.06;;;8.22;92.16
1371;BME280;14306;49.942;11.570;2022-09-21T00:44:23;98298.22;;;7.98;92.58
1371;BME280;14306;49.942;11.570;2022-09-21T00:46:54;98296.47;;;7.62;93.96
1371;BME280;14306;49.942;11.570;2022-09-21T00:49:25;98295.97;;;7.80;93.15
1371;BME280;14306;49.942;11.570;2022-09-21T00:51:55;98304.63;;;7.87;93.65
1371;BME280;14306;49.942;11.570;2022-09-21T00:54:26;98317.34;;;7.91;94.04
1371;BME280;14306;49.942;11.570;2022-09-21T00:56:56;98305.22;;;7.99;93.32
1371;BME280;14306;49.942;11.570;2022-09-21T00:59:30;98311.13;;;7.86;94.15
1371;BME280;14306;49.942;11.570;2022-09-21T01:02:01;98314.50;;;8.23;90.71
1371;BME280;14306;49.942;11.570;2022-09-21T01:04:30;98311.94;;;7.91;91.60
1371;BME280;14306;49.942;11.570;2022-09-21T01:07:02;98313.75;;;7.71;92.58
1371;BME280;14306;49.942;11.570;2022-09-21T01:09:32;98315.69;;;7.85;93.41
1371;BME280;14306;49.942;11.570;2022-09-21T01:12:10;98314.69;;;8.11;92.39
1371;BME280;14306;49.942;11.570;2022-09-21T01:14:54;98305.78;;;8.11;92.23
1371;BME280;14306;49.942;11.570;2022-09-21T01:17:30;98311.03;;;8.33;91.56
1371;BME280;14306;49.942;11.570;2022-09-21T01:23:01;98313.03;;;8.00;92.29
1371;BME280;14306;49.942;11.570;2022-09-21T01:25:39;98309.31;;;8.11;92.88
1371;BME280;14306;49.942;11.570;2022-09-21T01:28:53;98314.78;;;8.27;92.28
1371;BME280;14306;49.942;11.570;2022-09-21T01:31:26;98310.66;;;8.09;92.27
1371;BME280;14306;49.942;11.570;2022-09-21T01:34:00;98300.06;;;7.92;92.74
1371;BME280;14306;49.942;11.570;2022-09-21T01:36:32;98302.75;;;7.82;93.64
1371;BME280;14306;49.942;11.570;2022-09-21T01:39:05;98306.50;;;7.81;93.41
1371;BME280;14306;49.942;11.570;2022-09-21T01:41:36;98310.66;;;8.04;93.23
1371;BME280;14306;49.942;11.570;2022-09-21T01:44:09;98307.25;;;7.67;93.57
1371;BME280;14306;49.942;11.570;2022-09-21T01:46:40;98313.13;;;7.54;93.72
1371;BME280;14306;49.942;11.570;2022-09-21T01:49:11;98302.66;;;7.62;94.11
1371;BME280;14306;49.942;11.570;2022-09-21T01:51:42;98299.44;;;7.65;94.43
1371;BME280;14306;49.942;11.570;2022-09-21T01:54:13;98314.63;;;7.86;92.90
1371;BME280;14306;49.942;11.570;2022-09-21T01:56:47;98300.06;;;7.82;91.80
1371;BME280;14306;49.942;11.570;2022-09-21T01:59:22;98308.94;;;7.78;92.05
1371;BME280;14306;49.942;11.570;2022-09-21T02:01:56;98316.88;;;7.53;92.63
1371;BME280;14306;49.942;11.570;2022-09-21T02:04:26;98311.19;;;7.44;93.91
1371;BME280;14306;49.942;11.570;2022-09-21T02:06:54;98313.16;;;7.59;91.62
1371;BME280;14306;49.942;11.570;2022-09-21T02:09:22;98322.94;;;7.75;91.81
1371;BME280;14306;49.942;11.570;2022-09-21T02:11:51;98325.84;;;7.63;92.31
1371;BME280;14306;49.942;11.570;2022-09-21T02:14:21;98324.72;;;7.54;92.35
1371;BME280;14306;49.942;11.570;2022-09-21T02:16:57;98323.63;;;7.50;92.52
1371;BME280;14306;49.942;11.570;2022-09-21T02:19:35;98324.94;;;7.48;92.84
1371;BME280;14306;49.942;11.570;2022-09-21T02:22:10;98328.13;;;7.35;93.35
1371;BME280;14306;49.942;11.570;2022-09-21T02:24:42;98317.28;;;7.25;92.90
1371;BME280;14306;49.942;11.570;2022-09-21T02:27:17;98316.44;;;7.24;93.37
1371;BME280;14306;49.942;11.570;2022-09-21T02:29:50;98315.97;;;7.32;93.83
1371;BME280;14306;49.942;11.570;2022-09-21T02:32:25;98322.75;;;7.40;93.47
1371;BME280;14306;49.942;11.570;2022-09-21T02:35:00;98327.72;;;7.63;92.97
1371;BME280;14306;49.942;11.570;2022-09-21T02:37:35;98319.38;;;7.59;93.40
1371;BME280;14306;49.942;11.570;2022-09-21T02:40:09;98333.41;;;7.66;93.28
1371;BME280;14306;49.942;11.570;2022-09-21T02:42:42;98328.25;;;7.65;93.03
1371;BME280;14306;49.942;11.570;2022-09-21T02:45:18;98322.94;;;7.28;92.26
1371;BME280;14306;49.942;11.570;2022-09-21T02:47:51;98335.72;;;7.43;93.00
1371;BME280;14306;49.942;11.570;2022-09-21T02:50:25;98325.59;;;6.82;93.99
1371;BME280;14306;49.942;11.570;2022-09-21T02:52:59;98333.72;;;6.92;93.65
1371;BME280;14306;49.942;11.570;2022-09-21T02:55:28;98324.78;;;6.86;94.37
1371;BME280;14306;49.942;11.570;2022-09-21T02:58:00;98332.88;;;7.23;93.09
1371;BME280;14306;49.942;11.570;2022-09-21T03:00:33;98336.28;;;7.08;93.31
1371;BME280;14306;49.942;11.570;2022-09-21T03:03:13;98336.47;;;7.33;93.73
1371;BME280;14306;49.942;11.570;2022-09-21T03:05:43;98325.59;;;7.18;93.87
1371;BME280;14306;49.942;11.570;2022-09-21T03:08:11;98319.47;;;7.33;93.50
1371;BME280;14306;49.942;11.570;2022-09-21T03:10:39;98322.28;;;7.53;93.06
1371;BME280;14306;49.942;11.570;2022-09-21T03:13:07;98322.25;;;7.43;91.64
1371;BME280;14306;49.942;11.570;2022-09-21T03:15:37;98327.47;;;7.23;92.27
1371;BME280;14306;49.942;11.570;2022-09-21T03:18:07;98326.91;;;7.16;91.73
1371;BME280;14306;49.942;11.570;2022-09-21T03:20:37;98325.16;;;7.00;92.54
1371;BME280;14306;49.942;11.570;2022-09-21T03:23:06;98338.22;;;7.13;92.56
1371;BME280;14306;49.942;11.570;2022-09-21T03:25:35;98345.53;;;7.22;92.24
1371;BME280;14306;49.942;11.570;2022-09-21T03:28:03;98357.09;;;7.18;92.39
1371;BME280;14306;49.942;11.570;2022-09-21T03:30:31;98324.06;;;6.96;93.40
1371;BME280;14306;49.942;11.570;2022-09-21T03:33:02;98348.94;;;7.08;92.42
1371;BME280;14306;49.942;11.570;2022-09-21T03:35:32;98351.47;;;7.24;92.78
1371;BME280;14306;49.942;11.570;2022-09-21T03:38:00;98353.28;;;7.14;92.94
1371;BME280;14306;49.942;11.570;2022-09-21T03:40:29;98333.94;;;6.54;93.40
1371;BME280;14306;49.942;11.570;2022-09-21T03:42:57;98351.47;;;6.88;93.13
1371;BME280;14306;49.942;11.570;2022-09-21T03:45:25;98345.91;;;6.68;94.38
1371;BME280;14306;49.942;11.570;2022-09-21T03:47:54;98356.59;;;6.89;92.28
1371;BME280;14306;49.942;11.570;2022-09-21T03:50:26;98354.69;;;6.85;92.32
1371;BME280;14306;49.942;11.570;2022-09-21T03:52:54;98357.91;;;6.87;93.69
1371;BME280;14306;49.942;11.570;2022-09-21T03:55:23;98354.88;;;6.78;93.16
1371;BME280;14306;49.942;11.570;2022-09-21T03:57:51;98363.31;;;6.87;93.04
1371;BME280;14306;49.942;11.570;2022-09-21T04:00:19;98362.44;;;6.81;92.65
1371;BME280;14306;49.942;11.570;2022-09-21T04:02:48;98365.50;;;6.90;92.99
1371;BME280;14306;49.942;11.570;2022-09-21T04:05:16;98373.97;;;6.77;92.78
1371;BME280;14306;49.942;11.570;2022-09-21T04:07:46;98375.81;;;6.71;93.09
1371;BME280;14306;49.942;11.570;2022-09-21T04:10:16;98356.78;;;6.78;92.68
1371;BME280;14306;49.942;11.570;2022-09-21T04:12:45;98373.53;;;6.85;93.31
1371;BME280;14306;49.942;11.570;2022-09-21T04:15:15;98373.50;;;6.53;95.43
1371;BME280;14306;49.942;11.570;2022-09-21T04:17:45;98367.69;;;6.93;92.89
1371;BME280;14306;49.942;11.570;2022-09-21T04:20:14;98370.84;;;6.85;92.36
1371;BME280;14306;49.942;11.570;2022-09-21T04:22:42;98375.69;;;6.88;92.15
1371;BME280;14306;49.942;11.570;2022-09-21T04:25:12;98373.81;;;6.88;92.38
1371;BME280;14306;49.942;11.570;2022-09-21T04:27:40;98362.09;;;6.41;94.51
1371;BME280;14306;49.942;11.570;2022-09-21T04:30:10;98374.16;;;6.65;93.79
1371;BME280;14306;49.942;11.570;2022-09-21T04:32:39;98373.91;;;6.98;93.54
1371;BME280;14306;49.942;11.570;2022-09-21T04:35:08;98379.09;;;7.41;91.35
1371;BME280;14306;49.942;11.570;2022-09-21T04:37:36;98377.88;;;7.22;91.48
1371;BME280;14306;49.942;11.570;2022-09-21T04:40:06;98377.44;;;7.04;91.94
1371;BME280;14306;49.942;11.570;2022-09-21T04:42:36;98383.03;;;6.97;93.09
1371;BME280;14306;49.942;11.570;2022-09-21T04:45:05;98381.69;;;6.95;93.14
1371;BME280;14306;49.942;11.570;2022-09-21T04:47:34;98389.91;;;7.15;93.34
1371;BME280;14306;49.942;11.570;2022-09-21T04:50:03;98376.50;;;6.88;92.36
1371;BME280;14306;49.942;11.570;2022-09-21T04:52:31;98387.13;;;6.73;92.81
1371;BME280;14306;49.942;11.570;2022-09-21T04:55:00;98388.47;;;6.71;93.20
1371;BME280;14306;49.942;11.570;2022-09-21T04:57:28;98390.97;;;6.51;93.61
1371;BME280;14306;49.942;11.570;2022-09-21T04:59:57;98399.38;;;6.59;94.39
1371;BME280;14306;49.942;11.570;2022-09-21T05:02:25;98405.94;;;6.68;93.79
1371;BME280;14306;49.942;11.570;2022-09-21T05:04:53;98399.13;;;6.61;94.43
1371;BME280;14306;49.942;11.570;2022-09-21T05:07:22;98398.47;;;6.49;93.80
1371;BME280;14306;49.942;11.570;2022-09-21T05:09:50;98403.22;;;6.42;94.49
1371;BME280;14306;49.942;11.570;2022-09-21T05:12:29;98405.16;;;6.46;92.88
1371;BME280;14306;49.942;11.570;2022-09-21T05:14:59;98398.91;;;6.14;93.83
1371;BME280;14306;49.942;11.570;2022-09-21T05:17:28;98419.50;;;6.52;94.30
1371;BME280;14306;49.942;11.570;2022-09-21T05:19:55;98419.53;;;6.30;94.09
1371;BME280;14306;49.942;11.570;2022-09-21T05:22:24;98399.03;;;6.29;94.99
1371;BME280;14306;49.942;11.570;2022-09-21T05:24:52;98423.88;;;6.36;95.26
1371;BME280;14306;49.942;11.570;2022-09-21T05:27:21;98401.00;;;6.34;94.43
1371;BME280;14306;49.942;11.570;2022-09-21T05:29:50;98415.84;;;6.63;93.21
1371;BME280;14306;49.942;11.570;2022-09-21T05:32:24;98423.78;;;6.26;93.34
1371;BME280;14306;49.942;11.570;2022-09-21T05:35:05;98411.31;;;6.20;94.73
1371;BME280;14306;49.942;11.570;2022-09-21T05:41:25;98439.56;;;6.44;94.54
1371;BME280;14306;49.942;11.570;2022-09-21T05:43:54;98425.13;;;6.50;94.68
1371;BME280;14306;49.942;11.570;2022-09-21T05:46:32;98417.00;;;6.72;93.65
1371;BME280;14306;49.942;11.570;2022-09-21T05:49:17;98421.81;;;6.43;95.01
1371;BME280;14306;49.942;11.570;2022-09-21T05:51:55;98423.50;;;6.49;95.28
1371;BME280;14306;49.942;11.570;2022-09-21T05:54:33;98426.31;;;6.38;94.66
1371;BME280;14306;49.942;11.570;2022-09-21T05:57:11;98425.41;;;6.27;94.85
1371;BME280;14306;49.942;11.570;2022-09-21T05:59:50;98420.56;;;6.51;95.19
1371;BME280;14306;49.942;11.570;2022-09-21T06:02:33;98429.78;;;6.86;94.18
1371;BME280;14306;49.942;11.570;2022-09-21T06:05:09;98429.59;;;6.93;92.48
1371;BME280;14306;49.942;11.570;2022-09-21T06:07:38;98435.31;;;7.01;93.83
1371;BME280;14306;49.942;11.570;2022-09-21T06:10:08;98445.69;;;7.14;92.87
1371;BME280;14306;49.942;11.570;2022-09-21T06:12:36;98437.28;;;7.11;91.99
1371;BME280;14306;49.942;11.570;2022-09-21T06:15:07;98436.81;;;7.19;92.54
1371;BME280;14306;49.942;11.570;2022-09-21T06:17:38;98433.06;;;6.88;93.55
1371;BME280;14306;49.942;11.570;2022-09-21T06:20:08;98439.56;;;6.66;94.40
1371;BME280;14306;49.942;11.570;2022-09-21T06:22:37;98445.28;;;6.48;94.44
1371;BME280;14306;49.942;11.570;2022-09-21T06:25:05;98438.69;;;6.87;94.05
1371;BME280;14306;49.942;11.570;2022-09-21T06:27:37;98441.53;;;6.75;92.99
1371;BME280;14306;49.942;11.570;2022-09-21T06:30:06;98439.91;;;7.01;93.33
1371;BME280;14306;49.942;11.570;2022-09-21T06:32:34;98438.53;;;7.30;93.30
1371;BME280;14306;49.942;11.570;2022-09-21T06:35:08;98436.19;;;7.80;93.36
1371;BME280;14306;49.942;11.570;2022-09-21T06:37:36;98439.47;;;7.87;91.98
1371;BME280;14306;49.942;11.570;2022-09-21T06:40:06;98449.47;;;7.86;92.06
1371;BME280;14306;49.942;11.570;2022-09-21T06:42:35;98435.94;;;8.33;91.06
1371;BME280;14306;49.942;11.570;2022-09-21T06:45:03;98436.75;;;8.29;90.63
1371;BME280;14306;49.942;11.570;2022-09-21T06:47:31;98448.25;;;8.14;90.55
1371;BME280;14306;49.942;11.570;2022-09-21T06:49:59;98448.56;;;8.18;90.66
1371;BME280;14306;49.942;11.570;2022-09-21T06:52:31;98445.38;;;8.26;91.61
1371;BME280;14306;49.942;11.570;2022-09-21T06:54:59;98446.50;;;8.40;90.56
1371;BME280;14306;49.942;11.570;2022-09-21T06:57:27;98457.59;;;8.38;90.91
1371;BME280;14306;49.942;11.570;2022-09-21T06:59:54;98455.78;;;8.69;89.47
1371;BME280;14306;49.942;11.570;2022-09-21T07:02:23;98456.56;;;8.59;90.21
1371;BME280;14306;49.942;11.570;2022-09-21T07:04:50;98458.56;;;8.94;90.25
1371;BME280;14306;49.942;11.570;2022-09-21T07:07:18;98465.06;;;9.03;90.53
1371;BME280;14306;49.942;11.570;2022-09-21T07:09:53;98455.34;;;9.02;90.19
1371;BME280;14306;49.942;11.570;2022-09-21T07:12:41;98463.47;;;9.27;89.48
1371;BME280;14306;49.942;11.570;2022-09-21T07:15:11;98461.53;;;8.97;89.37
1371;BME280;14306;49.942;11.570;2022-09-21T07:17:39;98454.25;;;9.23;89.86
1371;BME280;14306;49.942;11.570;2022-09-21T07:20:08;98449.06;;;8.86;88.59
1371;BME280;14306;49.942;11.570;2022-09-21T07:22:36;98456.44;;;9.46;91.21
1371;BME280;14306;49.942;11.570;2022-09-21T07:25:06;98456.66;;;10.09;86.48
1371;BME280;14306;49.942;11.570;2022-09-21T07:27:34;98457.75;;;9.88;86.59
1371;BME280;14306;49.942;11.570;2022-09-21T07:30:02;98458.56;;;9.94;87.68
1371;BME280;14306;49.942;11.570;2022-09-21T07:32:30;98461.31;;;9.59;87.75
1371;BME280;14306;49.942;11.570;2022-09-21T07:34:58;98455.88;;;8.94;86.43
1371;BME280;14306;49.942;11.570;2022-09-21T07:37:27;98464.25;;;9.12;88.07
1371;BME280;14306;49.942;11.570;2022-09-21T07:39:54;98465.06;;;9.58;85.02
1371;BME280;14306;49.942;11.570;2022-09-21T07:42:26;98456.94;;;9.88;85.85
1371;BME280;14306;49.942;11.570;2022-09-21T07:44:58;98461.53;;;10.81;84.65
1371;BME280;14306;49.942;11.570;2022-09-21T07:47:30;98462.38;;;9.58;87.67
1371;BME280;14306;49.942;11.570;2022-09-21T07:49:58;98466.09;;;10.12;88.12
1371;BME280;14306;49.942;11.570;2022-09-21T07:52:27;98455.59;;;10.74;85.55
1371;BME280;14306;49.942;11.570;2022-09-21T07:54:54;98461.09;;;11.07;84.44
1371;BME280;14306;49.942;11.570;2022-09-21T07:57:27;98457.28;;;11.13;83.17
1371;BME280;14306;49.942;11.570;2022-09-21T08:00:13;98464.50;;;10.16;85.41
1371;BME280;14306;49.942;11.570;2022-09-21T08:02:41;98458.09;;;11.09;85.67
1371;BME280;14306;49.942;11.570;2022-09-21T08:05:13;98447.03;;;12.01;80.44
1371;BME280;14306;49.942;11.570;2022-09-21T08:07:41;98449.69;;;11.77;79.64
1371;BME280;14306;49.942;11.570;2022-09-21T08:10:09;98447.25;;;12.05;77.55
1371;BME280;14306;49.942;11.570;2022-09-21T08:12:38;98449.34;;;11.89;78.21
1371;BME280;14306;49.942;11.570;2022-09-21T08:15:07;98458.19;;;11.71;78.79
1371;BME280;14306;49.942;11.570;2022-09-21T08:17:55;98459.34;;;11.60;83.59
1371;BME280;14306;49.942;11.570;2022-09-21T08:20:24;98452.13;;;12.55;79.40
1371;BME280;14306;49.942;11.570;2022-09-21T08:22:54;98468.03;;;12.43;78.19
1371;BME280;14306;49.942;11.570;2022-09-21T08:25:22;98457.97;;;12.67;79.40
1371;BME280;14306;49.942;11.570;2022-09-21T08:27:56;98462.13;;;13.01;77.28
1371;BME280;14306;49.942;11.570;2022-09-21T08:30:24;98462.88;;;12.65;77.15
1371;BME280;14306;49.942;11.570;2022-09-21T08:32:53;98471.81;;;11.95;81.12
1371;BME280;14306;49.942;11.570;2022-09-21T08:35:21;98469.41;;;12.17;79.19
1371;BME280;14306;49.942;11.570;2022-09-21T08:37:52;98465.09;;;12.63;79.72
1371;BME280;14306;49.942;11.570;2022-09-21T08:40:20;98462.38;;;13.74;79.74
1371;BME280;14306;49.942;11.570;2022-09-21T08:42:55;98470.34;;;14.16;76.86
1371;BME280;14306;49.942;11.570;2022-09-21T08:45:31;98468.38;;;14.35;76.15
1371;BME280;14306;49.942;11.570;2022-09-21T08:48:03;98468.88;;;15.84;67.36
1371;BME280;14306;49.942;11.570;2022-09-21T08:50:36;98457.66;;;16.16;76.23
1371;BME280;14306;49.942;11.570;2022-09-21T08:53:08;98467.63;;;15.68;73.92
1371;BME280;14306;49.942;11.570;2022-09-21T08:55:37;98468.44;;;15.46;73.44
1371;BME280;14306;49.942;11.570;2022-09-21T08:58:18;98471.66;;;15.13;71.11
1371;BME280;14306;49.942;11.570;2022-09-21T09:00:52;98474.00;;;14.92;66.67
1371;BME280;14306;49.942;11.570;2022-09-21T09:03:50;98472.94;;;15.95;66.94
1371;BME280;14306;49.942;11.570;2022-09-21T09:06:25;98463.53;;;17.44;69.96
1371;BME280;14306;49.942;11.570;2022-09-21T09:09:11;98459.50;;;18.30;64.27
1371;BME280;14306;49.942;11.570;2022-09-21T09:12:00;98444.69;;;20.57;60.52
1371;BME280;14306;49.942;11.570;2022-09-21T09:14:51;98445.84;;;20.32;54.81
1371;BME280;14306;49.942;11.570;2022-09-21T09:17:32;98456.09;;;21.15;53.46
1371;BME280;14306;49.942;11.570;2022-09-21T09:20:09;98450.38;;;20.16;54.81
1371;BME280;14306;49.942;11.570;2022-09-21T09:22:42;98456.03;;;20.43;56.17
1371;BME280;14306;49.942;11.570;2022-09-21T09:25:18;98462.44;;;20.23;56.58
1371;BME280;14306;49.942;11.570;2022-09-21T09:27:50;98449.88;;;20.82;59.20
1371;BME280;14306;49.942;11.570;2022-09-21T09:30:22;98446.19;;;21.78;50.13
1371;BME280;14306;49.942;11.570;2022-09-21T09:32:55;98451.84;;;22.12;49.26
1371;BME280;14306;49.942;11.570;2022-09-21T09:35:27;98447.78;;;20.79;50.48
1371;BME280;14306;49.942;11.570;2022-09-21T09:38:01;98443.78;;;20.41;52.44
1371;BME280;14306;49.942;11.570;2022-09-21T09:40:57;98439.03;;;20.17;51.60
1371;BME280;14306;49.942;11.570;2022-09-21T09:43:38;98436.69;;;20.07;54.82
1371;BME280;14306;49.942;11.570;2022-09-21T09:46:16;98442.06;;;21.20;49.34
1371;BME280;14306;49.942;11.570;2022-09-21T09:49:07;98429.88;;;21.33;50.02
1371;BME280;14306;49.942;11.570;2022-09-21T09:51:39;98444.06;;;22.45;45.97
1371;BME280;14306;49.942;11.570;2022-09-21T09:54:13;98439.84;;;20.30;49.38
1371;BME280;14306;49.942;11.570;2022-09-21T09:56:41;98441.03;;;21.25;47.44
1371;BME280;14306;49.942;11.570;2022-09-21T09:59:13;98439.44;;;20.52;51.34
1371;BME280;14306;49.942;11.570;2022-09-21T10:01:58;98436.94;;;20.14;49.48
1371;BME280;14306;49.942;11.570;2022-09-21T10:04:28;98439.81;;;19.23;51.91
1371;BME280;14306;49.942;11.570;2022-09-21T10:06:56;98433.56;;;18.19;55.36
1371;BME280;14306;49.942;11.570;2022-09-21T10:09:25;98432.47;;;20.10;50.04
1371;BME280;14306;49.942;11.570;2022-09-21T10:11:57;98431.00;;;20.12;48.45
1371;BME280;14306;49.942;11.570;2022-09-21T10:14:30;98433.34;;;20.82;49.38
1371;BME280;14306;49.942;11.570;2022-09-21T10:17:04;98426.00;;;21.10;46.32
1371;BME280;14306;49.942;11.570;2022-09-21T10:19:33;98422.31;;;21.18;46.73
1371;BME280;14306;49.942;11.570;2022-09-21T10:22:04;98422.00;;;20.36;49.65
1371;BME280;14306;49.942;11.570;2022-09-21T10:24:34;98418.19;;;20.40;47.87
1371;BME280;14306;49.942;11.570;2022-09-21T10:27:05;98418.41;;;20.23;48.12
1371;BME280;14306;49.942;11.570;2022-09-21T10:29:40;98421.41;;;19.98;48.74
1371;BME280;14306;49.942;11.570;2022-09-21T10:32:21;98423.34;;;20.30;49.03
1371;BME280;14306;49.942;11.570;2022-09-21T10:35:01;98411.38;;;19.49;49.81
1371;BME280;14306;49.942;11.570;2022-09-21T10:37:31;98407.06;;;20.49;48.70
1371;BME280;14306;49.942;11.570;2022-09-21T10:40:00;98408.75;;;21.13;44.69
1371;BME280;14306;49.942;11.570;2022-09-21T10:42:32;98399.94;;;20.96;44.64
1371;BME280;14306;49.942;11.570;2022-09-21T10:45:12;98399.25;;;20.87;46.34
1371;BME280;14306;49.942;11.570;2022-09-21T10:47:45;98404.28;;;20.85;45.36
1371;BME280;14306;49.942;11.570;2022-09-21T10:50:23;98400.97;;;20.19;46.75
1371;BME280;14306;49.942;11.570;2022-09-21T10:52:57;98398.69;;;19.56;49.15
1371;BME280;14306;49.942;11.570;2022-09-21T10:55:27;98401.16;;;19.70;46.54
1371;BME280;14306;49.942;11.570;2022-09-21T10:57:56;98412.94;;;19.08;48.42
1371;BME280;14306;49.942;11.570;2022-09-21T11:00:34;98400.50;;;18.90;51.24
1371;BME280;14306;49.942;11.570;2022-09-21T11:06:21;98408.44;;;20.43;46.02
1371;BME280;14306;49.942;11.570;2022-09-21T11:08:53;98400.22;;;20.55;47.83
1371;BME280;14306;49.942;11.570;2022-09-21T11:11:38;98393.19;;;20.93;45.07
1371;BME280;14306;49.942;11.570;2022-09-21T11:14:17;98395.94;;;20.69;45.23
1371;BME280;14306;49.942;11.570;2022-09-21T11:16:52;98391.53;;;20.08;46.84
1371;BME280;14306;49.942;11.570;2022-09-21T11:19:28;98390.31;;;20.66;46.12
1371;BME280;14306;49.942;11.570;2022-09-21T11:22:06;98391.13;;;20.54;45.39
1371;BME280;14306;49.942;11.570;2022-09-21T11:24:39;98390.53;;;20.73;43.92
1371;BME280;14306;49.942;11.570;2022-09-21T11:27:14;98384.94;;;20.93;43.98
1371;BME280;14306;49.942;11.570;2022-09-21T11:29:52;98394.13;;;20.61;44.99
1371;BME280;14306;49.942;11.570;2022-09-21T11:32:31;98375.59;;;21.10;44.45
1371;BME280;14306;49.942;11.570;2022-09-21T11:35:17;98380.22;;;20.82;43.78
1371;BME280;14306;49.942;11.570;2022-09-21T11:38:00;98384.22;;;20.24;44.51
1371;BME280;14306;49.942;11.570;2022-09-21T11:40:42;98387.50;;;18.99;47.46
1371;BME280;14306;49.942;11.570;2022-09-21T11:43:22;98376.44;;;19.49;47.21
1371;BME280;14306;49.942;11.570;2022-09-21T11:45:58;98375.38;;;19.42;47.79
1371;BME280;14306;49.942;11.570;2022-09-21T11:48:38;98374.78;;;20.01;47.05
1371;BME280;14306;49.942;11.570;2022-09-21T11:51:24;98371.41;;;19.51;47.65
1371;BME280;14306;49.942;11.570;2022-09-21T11:54:25;98370.75;;;19.99;46.02
1371;BME280;14306;49.942;11.570;2022-09-21T11:57:02;98368.25;;;20.06;47.19
1371;BME280;14306;49.942;11.570;2022-09-21T11:59:44;98362.13;;;20.33;45.46
1371;BME280;14306;49.942;11.570;2022-09-21T12:05:21;98354.47;;;21.14;44.32
1371;BME280;14306;49.942;11.570;2022-09-21T12:08:13;98357.97;;;21.81;40.31
1371;BME280;14306;49.942;11.570;2022-09-21T12:10:55;98349.53;;;21.90;40.44
1371;BME280;14306;49.942;11.570;2022-09-21T12:13:34;98358.31;;;22.23;38.92
1371;BME280;14306;49.942;11.570;2022-09-21T12:16:13;98360.78;;;21.14;41.41
1371;BME280;14306;49.942;11.570;2022-09-21T12:18:49;98349.13;;;20.69;43.21
1371;BME280;14306;49.942;11.570;2022-09-21T12:21:21;98348.06;;;20.02;44.52
1371;BME280;14306;49.942;11.570;2022-09-21T12:23:53;98350.56;;;19.95;44.67
1371;BME280;14306;49.942;11.570;2022-09-21T12:26:26;98359.44;;;19.14;46.12
1371;BME280;14306;49.942;11.570;2022-09-21T12:28:56;98338.47;;;19.31;47.29
1371;BME280;14306;49.942;11.570;2022-09-21T12:31:30;98351.63;;;18.55;47.51
1371;BME280;14306;49.942;11.570;2022-09-21T12:34:04;98355.38;;;18.50;49.28
1371;BME280;14306;49.942;11.570;2022-09-21T12:36:39;98349.19;;;18.62;50.46
1371;BME280;14306;49.942;11.570;2022-09-21T12:39:14;98346.69;;;18.69;49.00
1371;BME280;14306;49.942;11.570;2022-09-21T12:41:50;98338.47;;;19.10;47.65
1371;BME280;14306;49.942;11.570;2022-09-21T12:44:25;98340.53;;;18.92;48.04
1371;BME280;14306;49.942;11.570;2022-09-21T12:46:59;98344.03;;;19.01;46.68
1371;BME280;14306;49.942;11.570;2022-09-21T12:49:38;98335.22;;;18.96;47.33
1371;BME280;14306;49.942;11.570;2022-09-21T12:52:19;98346.25;;;19.08;43.79
1371;BME280;14306;49.942;11.570;2022-09-21T12:54:52;98345.59;;;18.90;44.93
1371;BME280;14306;49.942;11.570;2022-09-21T12:57:35;98338.69;;;19.26;45.68
1371;BME280;14306;49.942;11.570;2022-09-21T13:00:33;98352.34;;;18.93;46.00
1371;BME280;14306;49.942;11.570;2022-09-21T13:03:10;98340.94;;;19.03;46.25
1371;BME280;14306;49.942;11.570;2022-09-21T13:05:49;98334.66;;;19.23;45.97
1371;BME280;14306;49.942;11.570;2022-09-21T13:08:25;98345.47;;;18.78;45.44
1371;BME280;14306;49.942;11.570;2022-09-21T13:10:59;98343.88;;;18.19;45.83
1371;BME280;14306;49.942;11.570;2022-09-21T13:13:33;98345.59;;;18.32;47.19
1371;BME280;14306;49.942;11.570;2022-09-21T13:16:01;98334.81;;;18.27;48.24
1371;BME280;14306;49.942;11.570;2022-09-21T13:18:32;98338.84;;;18.59;46.72
1371;BME280;14306;49.942;11.570;2022-09-21T13:21:14;98337.31;;;18.49;46.87
1371;BME280;14306;49.942;11.570;2022-09-21T13:23:50;98338.28;;;18.74;45.31
1371;BME280;14306;49.942;11.570;2022-09-21T13:26:32;98333.28;;;19.50;43.20
1371;BME280;14306;49.942;11.570;2022-09-21T13:29:27;98331.97;;;19.68;42.00
1371;BME280;14306;49.942;11.570;2022-09-21T13:31:57;98331.47;;;19.66;39.15
1371;BME280;14306;49.942;11.570;2022-09-21T13:34:31;98323.78;;;19.47;38.72
1371;BME280;14306;49.942;11.570;2022-09-21T13:37:33;98318.00;;;19.40;40.05
1371;BME280;14306;49.942;11.570;2022-09-21T13:43:17;98318.97;;;19.56;40.71
1371;BME280;14306;49.942;11.570;2022-09-21T13:45:53;98311.75;;;20.32;38.63
1371;BME280;14306;49.942;11.570;2022-09-21T13:48:24;98314.75;;;20.27;38.10
1371;BME280;14306;49.942;11.570;2022-09-21T13:50:56;98314.34;;;19.15;39.66
1371;BME280;14306;49.942;11.570;2022-09-21T13:53:30;98312.88;;;19.51;39.35
1371;BME280;14306;49.942;11.570;2022-09-21T13:56:01;98321.88;;;19.06;42.45